Time;durP1;ratioP1;P1;durP2;ratioP2;P2;SDS_P1;SDS_P2;PMS_P1;PMS_P2;Temp;Humidity;BMP_temperature;BMP_pressure;BME280_temperature;BME280_humidity;BME280_pressure;Samples;Min_cycle;Max_cycle;Signal;HPM_P1;HPM_P2
2022/10/18 00:00:21;;;;;;;11.07;5.78;;;15.70;99.90;;;;;;5091316;28;20378;-56
2022/10/18 00:02:47;;;;;;;13.00;6.30;;;15.60;99.90;;;;;;5090616;28;20424;-56
2022/10/18 00:05:12;;;;;;;17.03;6.20;;;15.60;99.90;;;;;;5090876;28;20456;-56
2022/10/18 00:07:38;;;;;;;11.68;5.72;;;15.70;99.90;;;;;;5090234;28;20480;-56
2022/10/18 00:10:04;;;;;;;12.15;5.50;;;15.70;99.90;;;;;;5090872;28;20537;-56
2022/10/18 00:12:33;;;;;;;11.95;5.47;;;15.70;99.90;;;;;;5090108;28;20393;-57
2022/10/18 00:14:58;;;;;;;14.07;5.82;;;15.80;53.50;;;;;;5090485;28;20454;-57
2022/10/18 00:17:24;;;;;;;11.23;5.32;;;15.70;15.40;;;;;;5090699;28;20386;-56
2022/10/18 00:19:50;;;;;;;13.85;6.75;;;15.60;50.90;;;;;;5089928;28;20840;-56
2022/10/18 00:22:16;;;;;;;11.73;5.57;;;15.60;32.40;;;;;;5090898;28;20393;-56
2022/10/18 00:24:41;;;;;;;11.27;5.60;;;15.50;12.10;;;;;;5089963;28;20725;-56
2022/10/18 00:27:07;;;;;;;10.15;5.63;;;15.40;28.70;;;;;;5090568;28;20402;-56
2022/10/18 00:29:32;;;;;;;16.43;6.20;;;15.40;13.90;;;;;;5090146;28;20370;-57
2022/10/18 00:31:58;;;;;;;13.90;6.10;;;15.40;3.30;;;;;;5090127;28;20818;-56
2022/10/18 00:34:23;;;;;;;12.95;6.28;;;15.30;45.00;;;;;;5090769;28;20393;-56
2022/10/18 00:36:49;;;;;;;12.27;6.20;;;15.20;84.60;;;;;;5089841;28;20465;-56
2022/10/18 00:39:17;;;;;;;11.63;5.47;;;15.20;81.30;;;;;;5090347;28;20704;-56
2022/10/18 00:41:43;;;;;;;22.08;6.28;;;15.10;94.00;;;;;;5089928;28;20461;-56
2022/10/18 00:44:12;;;;;;;12.70;6.10;;;15.10;99.90;;;;;;5090641;28;20382;-56
2022/10/18 00:46:40;;;;;;;13.88;6.30;;;15.00;99.90;;;;;;5089159;28;20500;-56
2022/10/18 00:49:18;;;;;;;16.73;6.82;;;15.00;99.90;;;;;;5090301;28;20838;-54
2022/10/18 00:51:57;;;;;;;12.25;6.40;;;14.90;99.90;;;;;;5089791;28;20374;-56
2022/10/18 00:54:25;;;;;;;12.43;6.37;;;15.00;99.90;;;;;;5090148;28;20370;-56
2022/10/18 00:56:51;;;;;;;13.50;6.13;;;15.10;99.90;;;;;;5089744;28;20389;-56
2022/10/18 00:59:17;;;;;;;13.30;6.47;;;15.20;99.90;;;;;;5090344;28;20370;-56
2022/10/18 01:01:44;;;;;;;13.37;6.20;;;15.30;99.90;;;;;;5089366;28;20383;-56
2022/10/18 01:04:12;;;;;;;12.88;6.80;;;15.40;99.90;;;;;;5090216;28;20401;-56
2022/10/18 01:06:49;;;;;;;19.40;6.67;;;15.40;99.90;;;;;;5089948;28;20428;-56
2022/10/18 01:09:22;;;;;;;15.75;5.80;;;15.60;99.90;;;;;;5090140;28;20438;-56
2022/10/18 01:12:31;;;;;;;13.13;5.90;;;15.70;99.90;;;;;;5089620;28;20789;-56
2022/10/18 01:15:26;;;;;;;9.90;5.32;;;15.80;99.90;;;;;;5007061;28;20847;-56
2022/10/18 01:18:17;;;;;;;14.53;5.60;;;15.90;97.00;;;;;;5089512;28;20409;-56
2022/10/18 01:21:20;;;;;;;10.23;5.90;;;15.80;54.00;;;;;;5089552;28;20565;-56
2022/10/18 01:24:10;;;;;;;15.27;5.53;;;15.80;67.20;;;;;;5089466;28;20397;-56
2022/10/18 01:27:00;;;;;;;12.70;6.10;;;15.70;82.10;;;;;;5089471;28;20405;-56
2022/10/18 01:29:25;;;;;;;14.73;5.90;;;15.80;76.50;;;;;;5090101;28;20428;-56
2022/10/18 01:32:05;;;;;;;14.13;6.53;;;15.90;56.20;;;;;;5088907;28;21106;-56
2022/10/18 01:34:35;;;;;;;12.70;6.10;;;15.90;43.90;;;;;;5089631;28;20520;-56
2022/10/18 01:37:04;;;;;;;9.63;5.47;;;15.90;46.40;;;;;;5090101;28;20527;-56
2022/10/18 01:39:36;;;;;;;13.70;5.40;;;16.00;34.10;;;;;;5090533;28;20376;-56
2022/10/18 01:42:06;;;;;;;12.90;5.78;;;16.10;29.30;;;;;;5090183;28;20461;-54
2022/10/18 01:44:32;;;;;;;12.88;6.10;;;16.10;12.10;;;;;;5090071;28;20374;-58
2022/10/18 01:46:59;;;;;;;13.40;6.10;;;16.20;1.00;;;;;;5089262;28;20494;-56
2022/10/18 01:49:26;;;;;;;17.15;6.43;;;16.30;1.00;;;;;;5089530;28;20385;-57
2022/10/18 01:51:52;;;;;;;20.90;6.22;;;16.20;1.00;;;;;;5089081;28;20430;-56
2022/10/18 01:54:23;;;;;;;12.20;5.77;;;16.10;1.00;;;;;;5089493;28;20374;-56
2022/10/18 01:57:21;;;;;;;12.33;5.90;;;16.10;1.00;;;;;;5085689;28;20435;-56
2022/10/18 01:59:58;;;;;;;11.73;5.60;;;16.10;1.00;;;;;;5079827;28;20471;-56
2022/10/18 02:03:03;;;;;;;14.32;5.82;;;16.10;1.00;;;;;;5089628;28;20397;-55
2022/10/18 02:05:42;;;;;;;18.20;5.50;;;16.00;1.00;;;;;;5007545;28;20484;-56
2022/10/18 02:08:26;;;;;;;12.27;5.82;;;16.20;1.00;;;;;;5081692;28;20416;-55
2022/10/18 02:11:00;;;;;;;12.65;5.70;;;16.10;1.00;;;;;;5088671;28;20393;-56
2022/10/18 02:13:32;;;;;;;13.53;5.70;;;15.90;1.00;;;;;;5089704;28;20382;-56
2022/10/18 02:16:03;;;;;;;12.20;5.57;;;15.90;1.00;;;;;;5090957;28;20377;-56
2022/10/18 02:18:35;;;;;;;11.13;5.50;;;15.80;10.90;;;;;;5093628;28;20374;-56
2022/10/18 02:21:03;;;;;;;13.13;6.15;;;15.80;30.00;;;;;;5093588;28;20715;-56
2022/10/18 02:23:30;;;;;;;13.50;6.40;;;15.80;16.90;;;;;;5093358;28;20406;-55
2022/10/18 02:25:56;;;;;;;14.68;6.43;;;15.80;59.90;;;;;;5094015;28;20370;-56
2022/10/18 02:28:21;;;;;;;13.10;5.60;;;15.80;9.50;;;;;;5093365;28;20433;-55
2022/10/18 02:31:09;;;;;;;14.43;5.88;;;15.90;11.10;;;;;;5092716;28;20463;-55
2022/10/18 02:33:37;;;;;;;12.02;5.53;;;15.90;1.00;;;;;;5092945;28;20492;-56
2022/10/18 02:36:11;;;;;;;12.13;5.40;;;15.90;1.00;;;;;;5093130;28;20465;-55
2022/10/18 02:38:40;;;;;;;12.43;5.53;;;15.90;1.00;;;;;;5092458;28;20378;-56
2022/10/18 02:41:05;;;;;;;12.68;5.72;;;16.00;1.00;;;;;;5093144;28;20393;-56
2022/10/18 02:43:31;;;;;;;11.95;5.40;;;16.00;1.00;;;;;;5092485;28;20780;-58
2022/10/18 02:45:57;;;;;;;15.47;5.57;;;16.00;1.00;;;;;;5093027;28;20828;-56
2022/10/18 02:48:22;;;;;;;12.80;5.50;;;16.00;1.00;;;;;;5092741;28;20433;-56
2022/10/18 02:50:48;;;;;;;15.45;6.00;;;16.10;1.00;;;;;;5091328;28;20378;-55
2022/10/18 02:53:13;;;;;;;12.47;5.60;;;16.10;1.00;;;;;;5092725;28;20427;-56
2022/10/18 02:55:39;;;;;;;12.00;5.40;;;16.10;1.00;;;;;;5091588;28;20467;-56
2022/10/18 02:58:04;;;;;;;15.43;5.63;;;16.10;1.00;;;;;;5092274;28;20838;-56
2022/10/18 03:00:30;;;;;;;10.15;5.45;;;16.00;1.00;;;;;;5092357;28;20469;-56
2022/10/18 03:02:55;;;;;;;13.97;5.67;;;16.00;1.00;;;;;;5091953;28;20382;-55
2022/10/18 03:05:21;;;;;;;11.27;5.07;;;16.00;1.00;;;;;;5092132;28;20370;-56
2022/10/18 03:07:47;;;;;;;12.60;5.50;;;16.10;1.00;;;;;;5090817;28;20809;-56
2022/10/18 03:10:12;;;;;;;13.75;5.03;;;16.00;1.00;;;;;;5091706;28;20378;-56
2022/10/18 03:12:38;;;;;;;9.80;4.63;;;16.10;1.00;;;;;;5091700;28;20396;-56
2022/10/18 03:15:04;;;;;;;12.87;4.93;;;16.20;1.00;;;;;;5092259;28;20378;-55
2022/10/18 03:17:29;;;;;;;14.10;5.00;;;16.20;1.00;;;;;;5092230;28;20373;-56
2022/10/18 03:19:55;;;;;;;11.73;5.63;;;16.30;1.00;;;;;;5091397;28;20423;-56
2022/10/18 03:22:21;;;;;;;12.77;5.30;;;16.40;1.00;;;;;;5092461;28;20405;-55
2022/10/18 03:24:46;;;;;;;19.85;6.25;;;16.40;1.00;;;;;;5091475;28;20378;-56
2022/10/18 03:27:12;;;;;;;11.98;5.13;;;16.40;1.00;;;;;;5091652;28;20463;-56
2022/10/18 03:29:37;;;;;;;13.70;5.00;;;16.40;1.00;;;;;;5091069;28;20453;-56
2022/10/18 03:32:03;;;;;;;10.97;5.20;;;16.30;1.00;;;;;;5089032;28;20406;-55
2022/10/18 03:34:29;;;;;;;14.70;4.75;;;16.20;1.00;;;;;;5091455;28;20511;-56
2022/10/18 03:36:56;;;;;;;10.02;4.90;;;16.00;1.00;;;;;;5090601;28;20475;-56
2022/10/18 03:39:21;;;;;;;11.10;4.60;;;15.80;1.00;;;;;;5090835;28;20863;-56
2022/10/18 03:41:47;;;;;;;11.43;4.60;;;15.80;1.00;;;;;;5090065;28;20456;-56
2022/10/18 03:44:13;;;;;;;9.70;4.30;;;15.60;1.00;;;;;;5091700;28;20749;-54
2022/10/18 03:46:38;;;;;;;9.85;4.45;;;15.50;1.00;;;;;;5089966;28;20492;-55
2022/10/18 03:49:04;;;;;;;10.75;4.47;;;15.40;1.00;;;;;;5090634;28;20386;-55
2022/10/18 03:51:29;;;;;;;11.30;4.77;;;15.40;10.30;;;;;;5090354;28;20469;-55
2022/10/18 03:53:55;;;;;;;8.30;4.00;;;15.30;36.50;;;;;;5089600;28;20574;-55
2022/10/18 03:56:20;;;;;;;10.40;4.45;;;15.40;23.40;;;;;;5091182;28;20812;-55
2022/10/18 03:58:46;;;;;;;11.52;4.55;;;15.50;1.00;;;;;;5090187;28;20401;-55
2022/10/18 04:01:12;;;;;;;13.10;4.57;;;15.50;1.00;;;;;;5090422;28;20465;-55
2022/10/18 04:03:37;;;;;;;11.73;4.53;;;15.60;1.00;;;;;;5078067;28;20396;-56
2022/10/18 04:06:03;;;;;;;13.75;5.18;;;15.70;1.00;;;;;;5085026;28;20782;-55
2022/10/18 04:08:29;;;;;;;13.55;5.07;;;15.70;1.00;;;;;;5081594;28;20422;-55
2022/10/18 04:10:54;;;;;;;11.80;5.03;;;15.70;1.00;;;;;;5069811;28;20376;-55
2022/10/18 04:13:20;;;;;;;11.07;4.70;;;15.70;1.00;;;;;;5070479;28;20433;-55
2022/10/18 04:15:46;;;;;;;11.80;4.70;;;15.70;1.00;;;;;;5069836;28;20749;-55
2022/10/18 04:18:11;;;;;;;11.73;4.40;;;15.60;1.00;;;;;;5073754;28;20421;-55
2022/10/18 04:20:37;;;;;;;14.03;5.70;;;15.50;1.00;;;;;;5089685;28;20767;-56
2022/10/18 04:23:02;;;;;;;9.73;4.50;;;15.60;1.00;;;;;;5088728;28;20924;-55
2022/10/18 04:25:28;;;;;;;12.60;4.70;;;15.60;1.00;;;;;;5089463;28;20400;-55
2022/10/18 04:27:54;;;;;;;9.52;4.25;;;15.60;1.00;;;;;;5077495;28;20467;-55
2022/10/18 04:30:20;;;;;;;10.77;4.40;;;15.60;1.00;;;;;;5090419;28;20370;-55
2022/10/18 04:32:45;;;;;;;11.00;4.20;;;15.70;1.00;;;;;;5084731;28;20454;-55
2022/10/18 04:35:11;;;;;;;11.10;4.60;;;15.80;1.00;;;;;;5086344;28;20393;-55
2022/10/18 04:37:37;;;;;;;10.60;4.80;;;15.90;1.00;;;;;;5089309;28;20405;-56
2022/10/18 04:40:03;;;;;;;10.50;5.22;;;15.90;1.00;;;;;;5087590;28;20390;-55
2022/10/18 04:42:29;;;;;;;11.32;4.55;;;16.00;1.00;;;;;;5087607;28;20378;-55
2022/10/18 04:44:54;;;;;;;9.50;4.13;;;16.10;1.00;;;;;;5088652;28;20390;-55
2022/10/18 04:47:20;;;;;;;12.18;5.25;;;16.10;1.00;;;;;;5086770;28;20420;-55
2022/10/18 04:49:46;;;;;;;11.15;4.70;;;16.20;1.00;;;;;;5085188;28;20406;-55
2022/10/18 04:52:11;;;;;;;11.77;4.97;;;16.20;1.00;;;;;;5085604;28;20432;-55
2022/10/18 04:54:37;;;;;;;10.07;4.47;;;16.10;1.00;;;;;;5089535;28;20447;-56
2022/10/18 04:57:02;;;;;;;13.38;4.70;;;14.40;1.00;;;;;;5090092;28;20427;-55
2022/10/18 04:59:28;;;;;;;12.43;5.10;;;16.10;1.00;;;;;;5090164;28;20374;-55
2022/10/18 05:01:54;;;;;;;11.20;5.47;;;16.00;1.00;;;;;;5085336;28;20463;-56
2022/10/18 05:04:19;;;;;;;12.57;5.60;;;16.10;1.00;;;;;;5084708;28;20859;-55
2022/10/18 05:06:45;;;;;;;9.90;4.97;;;16.10;1.00;;;;;;5088216;28;20413;-55
2022/10/18 05:09:11;;;;;;;9.70;4.87;;;16.20;1.00;;;;;;5089914;28;20382;-55
2022/10/18 05:11:37;;;;;;;10.65;4.20;;;15.90;1.00;;;;;;5083575;28;20448;-57
2022/10/18 05:14:02;;;;;;;12.40;4.73;;;15.80;1.00;;;;;;5089365;28;20900;-56
2022/10/18 05:16:28;;;;;;;9.40;3.90;;;15.90;1.00;;;;;;5073279;28;20414;-55
2022/10/18 05:18:54;;;;;;;7.95;3.80;;;16.00;1.00;;;;;;5070601;28;20461;-55
2022/10/18 05:21:19;;;;;;;10.00;3.90;;;16.00;1.00;;;;;;5069079;28;20470;-55
2022/10/18 05:23:45;;;;;;;8.23;3.80;;;16.20;1.00;;;;;;5082059;28;20426;-55
2022/10/18 05:26:10;;;;;;;9.73;4.30;;;16.20;99.90;;;;;;5104978;28;20735;-55
2022/10/18 05:28:36;;;;;;;9.03;3.90;;;16.20;99.90;;;;;;5089106;28;20814;-57
2022/10/18 05:31:07;;;;;;;12.15;4.60;;;16.20;99.90;;;;;;5089024;28;20389;-55
2022/10/18 05:33:33;;;;;;;11.05;4.50;;;16.10;99.90;;;;;;5089225;28;20398;-55
2022/10/18 05:35:58;;;;;;;9.75;4.63;;;16.00;99.90;;;;;;5088604;28;20438;-55
2022/10/18 05:38:24;;;;;;;11.65;4.20;;;15.90;99.90;;;;;;5089695;28;20696;-55
2022/10/18 05:40:50;;;;;;;9.10;4.32;;;15.90;99.90;;;;;;5088722;28;20409;-55
2022/10/18 05:43:16;;;;;;;12.57;4.63;;;15.90;1.00;;;;;;5089685;28;20378;-54
2022/10/18 05:45:51;;;;;;;11.65;4.95;;;15.90;1.00;;;;;;5088728;28;20912;-55
2022/10/18 05:48:17;;;;;;;9.40;4.40;;;15.90;1.00;;;;;;5089440;28;20409;-54
2022/10/18 05:50:43;;;;;;;11.10;4.07;;;15.90;1.00;;;;;;5088980;28;20382;-54
2022/10/18 05:53:08;;;;;;;13.40;4.50;;;15.90;1.00;;;;;;5093225;28;20736;-55
2022/10/18 05:55:34;;;;;;;9.13;3.90;;;15.90;1.00;;;;;;5093205;28;20374;-55
2022/10/18 05:58:00;;;;;;;10.60;4.75;;;16.00;1.00;;;;;;5092673;28;20378;-55
2022/10/18 06:00:26;;;;;;;10.35;4.20;;;16.00;1.00;;;;;;5093456;28;20457;-55
2022/10/18 06:02:51;;;;;;;10.40;4.07;;;16.10;99.90;;;;;;5092767;28;20480;-56
2022/10/18 06:05:17;;;;;;;9.70;4.50;;;16.00;99.90;;;;;;5085525;28;20743;-55
2022/10/18 06:07:43;;;;;;;11.47;4.20;;;16.00;99.90;;;;;;5093034;28;20428;-55
2022/10/18 06:10:08;;;;;;;9.60;4.10;;;15.90;1.00;;;;;;5092621;28;20490;-55
2022/10/18 06:12:34;;;;;;;9.60;3.95;;;15.90;1.00;;;;;;5092990;28;20397;-55
2022/10/18 06:14:59;;;;;;;9.27;4.20;;;15.90;1.00;;;;;;5092192;28;20455;-55
2022/10/18 06:17:25;;;;;;;9.00;4.00;;;16.00;1.00;;;;;;5093246;28;20447;-55
2022/10/18 06:19:51;;;;;;;10.10;3.80;;;16.10;1.00;;;;;;5092002;28;20421;-54
2022/10/18 06:22:16;;;;;;;9.53;4.10;;;16.30;99.90;;;;;;5093169;28;20394;-54
2022/10/18 06:24:42;;;;;;;11.93;3.50;;;16.40;99.90;;;;;;5092249;28;20377;-54
2022/10/18 06:27:08;;;;;;;8.40;3.80;;;16.50;99.90;;;;;;5092963;28;20822;-54
2022/10/18 06:29:38;;;;;;;9.48;3.67;;;16.80;99.90;;;;;;5092771;28;20382;-55
2022/10/18 06:32:05;;;;;;;8.13;3.58;;;17.00;99.90;;;;;;5091789;28;20775;-55
2022/10/18 06:34:30;;;;;;;7.67;3.60;;;17.20;1.00;;;;;;5092528;28;20473;-55
2022/10/18 06:36:56;;;;;;;8.00;3.60;;;17.30;1.00;;;;;;5084097;28;21095;-55
2022/10/18 06:39:22;;;;;;;10.10;3.40;;;17.50;99.90;;;;;;5091931;28;20903;-55
2022/10/18 06:41:47;;;;;;;8.63;3.30;;;17.60;8.50;;;;;;5091459;28;20388;-55
2022/10/18 06:44:13;;;;;;;10.65;3.67;;;17.70;99.90;;;;;;5092303;28;20480;-55
2022/10/18 06:46:44;;;;;;;9.70;3.80;;;17.70;99.90;;;;;;5092112;28;20414;-56
2022/10/18 06:49:10;;;;;;;7.60;3.40;;;17.60;99.90;;;;;;5092344;28;20423;-55
2022/10/18 06:51:36;;;;;;;8.67;3.70;;;17.60;99.90;;;;;;5092677;28;20382;-55
2022/10/18 06:54:02;;;;;;;8.80;3.40;;;17.50;99.90;;;;;;5091526;28;20458;-55
2022/10/18 06:56:27;;;;;;;10.00;4.45;;;17.50;1.00;;;;;;5092213;28;20404;-56
2022/10/18 06:58:53;;;;;;;8.02;3.70;;;17.50;1.00;;;;;;5091635;28;20410;-55
2022/10/18 07:01:19;;;;;;;13.20;4.00;;;17.50;1.00;;;;;;5091616;28;20382;-55
2022/10/18 07:03:46;;;;;;;11.13;3.90;;;17.60;99.90;;;;;;5090834;28;20382;-55
2022/10/18 07:06:14;;;;;;;8.82;3.42;;;17.70;99.90;;;;;;5091757;28;20797;-55
2022/10/18 07:08:40;;;;;;;13.18;3.83;;;17.70;99.90;;;;;;5091565;28;20432;-57
2022/10/18 07:11:07;;;;;;;9.50;3.67;;;17.80;1.00;;;;;;5107597;28;20386;-55
2022/10/18 07:13:33;;;;;;;9.00;3.50;;;17.90;1.00;;;;;;5091828;28;20886;-55
2022/10/18 07:16:04;;;;;;;10.00;3.70;;;17.90;99.90;;;;;;5091202;28;20382;-55
2022/10/18 07:18:33;;;;;;;9.20;3.80;;;17.90;99.90;;;;;;5092061;28;20390;-55
2022/10/18 07:21:04;;;;;;;7.82;3.13;;;17.90;99.90;;;;;;5091098;28;20362;-55
2022/10/18 07:23:32;;;;;;;7.72;3.60;;;17.80;1.00;;;;;;5091702;28;20382;-56
2022/10/18 07:25:58;;;;;;;10.48;4.38;;;17.90;1.00;;;;;;5090789;28;20385;-56
2022/10/18 07:28:24;;;;;;;7.80;3.90;;;18.10;1.00;;;;;;5091264;28;20410;-56
2022/10/18 07:30:49;;;;;;;10.20;4.28;;;18.10;99.90;;;;;;5090486;28;20425;-55
2022/10/18 07:33:15;;;;;;;10.53;3.60;;;18.20;99.90;;;;;;5091742;28;20444;-55
2022/10/18 07:35:41;;;;;;;9.53;3.87;;;18.20;20.50;;;;;;5090905;28;20734;-57
2022/10/18 07:38:06;;;;;;;8.57;3.80;;;18.20;99.90;;;;;;5091849;28;20377;-55
2022/10/18 07:40:32;;;;;;;7.90;3.53;;;18.30;1.00;;;;;;5091476;28;20396;-55
2022/10/18 07:42:57;;;;;;;10.35;4.30;;;18.30;1.00;;;;;;5090870;28;20862;-55
2022/10/18 07:45:23;;;;;;;10.07;3.80;;;18.40;99.90;;;;;;5091345;28;20897;-55
2022/10/18 07:47:54;;;;;;;10.80;3.70;;;18.50;1.00;;;;;;5091237;28;20485;-55
2022/10/18 07:50:19;;;;;;;10.05;3.50;;;18.80;99.90;;;;;;5091798;28;20366;-55
2022/10/18 07:52:45;;;;;;;8.43;3.50;;;18.80;99.90;;;;;;5089987;28;20382;-55
2022/10/18 07:55:10;;;;;;;8.80;3.80;;;18.90;20.10;;;;;;5091507;28;20366;-55
2022/10/18 07:57:36;;;;;;;8.57;3.70;;;18.90;99.90;;;;;;5091770;28;20456;-55
2022/10/18 08:00:02;;;;;;;8.83;3.70;;;19.00;54.90;;;;;;5090798;28;20374;-55
2022/10/18 08:02:27;;;;;;;9.30;3.60;;;19.10;1.00;;;;;;5091543;28;20796;-55
2022/10/18 08:04:53;;;;;;;10.00;3.80;;;19.10;1.00;;;;;;5090872;28;20401;-55
2022/10/18 08:07:18;;;;;;;10.17;3.30;;;19.10;98.30;;;;;;5091250;28;20928;-55
2022/10/18 08:09:44;;;;;;;9.37;4.00;;;19.10;33.10;;;;;;5090819;28;20461;-55
2022/10/18 08:12:09;;;;;;;11.55;3.58;;;19.10;69.90;;;;;;5090996;28;20370;-55
2022/10/18 08:14:35;;;;;;;10.10;3.58;;;19.20;1.00;;;;;;5089715;28;20428;-55
2022/10/18 08:17:01;;;;;;;7.73;3.80;;;19.10;99.90;;;;;;5090087;28;20489;-55
2022/10/18 08:19:26;;;;;;;9.87;3.50;;;19.00;99.90;;;;;;5091589;28;20385;-55
2022/10/18 08:21:52;;;;;;;9.60;3.90;;;19.00;99.90;;;;;;5090617;28;20386;-55
2022/10/18 08:24:17;;;;;;;12.90;3.87;;;19.10;48.60;;;;;;5090978;28;20374;-56
2022/10/18 08:26:43;;;;;;;7.25;3.30;;;19.20;1.00;;;;;;5090154;28;20877;-56
2022/10/18 08:29:09;;;;;;;8.80;3.80;;;19.30;1.00;;;;;;5090346;28;20385;-55
2022/10/18 08:31:35;;;;;;;9.65;3.15;;;19.40;1.00;;;;;;5089829;28;20756;-55
2022/10/18 08:34:00;;;;;;;8.00;3.50;;;19.60;99.90;;;;;;5090286;28;20374;-55
2022/10/18 08:36:26;;;;;;;9.10;3.57;;;19.80;99.90;;;;;;5090745;28;20378;-55
2022/10/18 08:38:52;;;;;;;8.20;3.70;;;19.90;99.90;;;;;;5089775;28;20418;-55
2022/10/18 08:41:36;;;;;;;10.30;4.57;;;20.00;99.90;;;;;;5090869;28;20385;-55
2022/10/18 08:44:25;;;;;;;7.60;3.75;;;20.20;99.90;;;;;;5090284;28;20882;-56
2022/10/18 08:47:04;;;;;;;14.20;4.90;;;20.20;99.90;;;;;;5089763;28;20406;-55
2022/10/18 08:50:06;;;;;;;12.17;4.83;;;20.10;99.90;;;;;;5090798;28;20850;-55
2022/10/18 08:52:53;;;;;;;10.90;4.82;;;20.20;99.90;;;;;;5077450;28;20397;-56
2022/10/18 08:55:38;;;;;;;13.00;6.45;;;20.70;9.60;;;;;;5090098;28;20381;-56
2022/10/18 08:58:21;;;;;;;12.77;4.90;;;21.30;1.00;;;;;;5089522;28;20874;-56
2022/10/18 09:01:07;;;;;;;11.85;5.22;;;;;;;;;;5089410;28;20871;-57
2022/10/18 09:04:03;;;;;;;11.00;6.00;;;22.90;99.90;;;;;;5089708;28;20374;-57
2022/10/18 09:06:47;;;;;;;12.43;6.07;;;24.90;1.00;;;;;;5090406;28;20761;-56
2022/10/18 09:09:31;;;;;;;16.60;7.60;;;25.10;1.00;;;;;;5089914;28;20474;-56
2022/10/18 09:12:37;;;;;;;13.25;5.90;;;24.80;1.00;;;;;;5089573;28;20382;-57
2022/10/18 09:15:28;;;;;;;10.03;4.20;;;23.70;1.00;;;;;;5089904;28;20394;-56
2022/10/18 09:18:11;;;;;;;11.40;5.80;;;22.80;1.00;;;;;;5089632;28;20399;-57
2022/10/18 09:20:51;;;;;;;9.63;4.50;;;22.70;1.00;;;;;;5089994;28;20378;-56
2022/10/18 09:23:21;;;;;;;10.40;4.70;;;22.40;1.00;;;;;;5089448;28;20386;-56
2022/10/18 09:25:54;;;;;;;13.73;5.30;;;22.00;1.00;;;;;;5088861;28;20751;-56
2022/10/18 09:28:32;;;;;;;9.32;4.60;;;22.20;1.00;;;;;;5089689;28;20405;-57
2022/10/18 09:31:06;;;;;;;11.15;4.97;;;22.20;1.00;;;;;;5089183;28;20393;-57
2022/10/18 09:34:02;;;;;;;8.75;4.25;;;21.90;1.00;;;;;;5088988;28;20455;-56
2022/10/18 09:36:35;;;;;;;9.45;4.40;;;21.90;1.00;;;;;;5089862;28;20722;-57
2022/10/18 09:39:23;;;;;;;14.02;4.43;;;22.30;1.00;;;;;;5088475;28;20382;-57
2022/10/18 09:41:56;;;;;;;13.33;5.33;;;22.60;1.00;;;;;;5086101;28;20752;-57
2022/10/18 09:44:49;;;;;;;9.88;3.95;;;23.10;1.00;;;;;;5089698;28;20715;-57
2022/10/18 09:47:29;;;;;;;10.10;4.20;;;23.70;1.00;;;;;;5089780;28;20398;-56
2022/10/18 09:49:59;;;;;;;10.05;4.07;;;23.40;1.00;;;;;;5088976;28;20382;-57
2022/10/18 09:52:33;;;;;;;12.07;4.18;;;23.80;1.00;;;;;;5089296;28;20724;-58
2022/10/18 09:55:04;;;;;;;13.07;4.40;;;25.20;1.00;;;;;;5088487;28;20852;-57
2022/10/18 09:57:45;;;;;;;12.43;4.80;;;26.60;1.00;;;;;;5089715;28;20439;-58
2022/10/18 10:00:19;;;;;;;15.02;5.50;;;27.60;99.90;;;;;;5089651;28;20366;-57
2022/10/18 10:02:45;;;;;;;11.43;6.05;;;28.40;99.90;;;;;;5088688;28;20859;-58
2022/10/18 10:05:13;;;;;;;10.38;6.95;;;29.70;1.00;;;;;;5089373;28;20432;-57
2022/10/18 10:07:43;;;;;;;10.50;5.00;;;30.20;1.00;;;;;;5089064;28;20437;-57
2022/10/18 10:10:25;;;;;;;11.35;4.75;;;29.90;1.00;;;;;;5089307;28;20413;-57
2022/10/18 10:13:14;;;;;;;13.30;5.30;;;29.30;99.90;;;;;;5088594;28;20473;-58
2022/10/18 10:15:45;;;;;;;9.43;4.88;;;29.00;99.90;;;;;;5089394;28;20446;-58
2022/10/18 10:18:22;;;;;;;12.20;6.10;;;29.10;99.90;;;;;;5089640;28;20386;-58
2022/10/18 10:20:51;;;;;;;10.27;4.30;;;29.30;99.90;;;;;;5088450;28;20389;-57
2022/10/18 10:23:29;;;;;;;8.30;3.17;;;29.40;99.90;;;;;;5089203;28;20367;-57
2022/10/18 10:26:01;;;;;;;9.20;4.10;;;29.40;99.90;;;;;;5088161;28;20386;-58
2022/10/18 10:28:47;;;;;;;9.90;4.18;;;29.10;99.90;;;;;;5089020;28;20483;-57
2022/10/18 10:31:29;;;;;;;7.90;3.72;;;29.00;99.90;;;;;;5088830;28;20393;-58
2022/10/18 10:34:05;;;;;;;8.20;3.30;;;29.40;99.90;;;;;;5088525;28;20409;-58
2022/10/18 10:36:32;;;;;;;7.50;3.30;;;29.30;99.90;;;;;;5089335;28;20370;-58
2022/10/18 10:39:12;;;;;;;9.95;3.58;;;29.30;99.90;;;;;;5091614;28;20960;-58
2022/10/18 10:41:39;;;;;;;6.77;3.00;;;29.70;99.90;;;;;;5092778;28;20377;-58
2022/10/18 10:44:14;;;;;;;9.30;3.50;;;29.40;99.90;;;;;;5091890;28;20407;-58
2022/10/18 10:46:40;;;;;;;8.73;3.00;;;29.40;99.90;;;;;;5092613;28;20402;-58
2022/10/18 10:49:41;;;;;;;10.73;4.97;;;29.40;99.90;;;;;;5092061;28;20843;-57
2022/10/18 10:52:18;;;;;;;8.23;4.10;;;28.50;99.90;;;;;;5092201;28;20374;-57
2022/10/18 10:54:44;;;;;;;10.95;4.15;;;27.90;99.90;;;;;;5091433;28;20780;-58
2022/10/18 10:57:11;;;;;;;8.63;3.65;;;27.20;99.90;;;;;;5092332;28;20859;-57
2022/10/18 10:59:45;;;;;;;9.00;3.00;;;26.50;99.90;;;;;;5092544;28;20467;-57
2022/10/18 11:02:16;;;;;;;7.43;2.70;;;25.70;99.90;;;;;;5092154;28;20390;-57
2022/10/18 11:04:43;;;;;;;8.20;2.50;;;25.10;99.90;;;;;;5091646;28;20390;-57
2022/10/18 11:07:08;;;;;;;9.88;3.00;;;24.40;99.90;;;;;;5091938;28;20405;-56
2022/10/18 11:09:55;;;;;;;6.70;2.70;;;24.60;99.90;;;;;;5092585;28;20853;-56
2022/10/18 11:12:44;;;;;;;7.60;2.60;;;25.00;99.90;;;;;;5092108;28;20402;-56
2022/10/18 11:15:37;;;;;;;12.02;3.35;;;25.10;99.90;;;;;;5091681;28;20716;-56
2022/10/18 11:18:16;;;;;;;9.90;2.90;;;25.30;99.90;;;;;;5090950;28;20382;-56
2022/10/18 11:20:59;;;;;;;7.53;2.90;;;25.50;99.90;;;;;;5091755;28;20370;-57
2022/10/18 11:23:31;;;;;;;7.10;2.78;;;25.30;99.90;;;;;;5091645;28;20424;-56
2022/10/18 11:26:11;;;;;;;7.63;2.60;;;25.20;99.90;;;;;;5090907;28;20464;-56
2022/10/18 11:29:19;;;;;;;7.15;2.80;;;25.10;99.90;;;;;;5091685;28;20398;-56
2022/10/18 11:31:57;;;;;;;8.95;2.72;;;25.10;99.90;;;;;;5090565;28;20745;-57
2022/10/18 11:34:51;;;;;;;11.45;3.33;;;24.90;99.90;;;;;;5091501;28;20409;-56
2022/10/18 11:37:54;;;;;;;10.10;3.30;;;24.80;99.90;;;;;;5091938;28;20428;-56
2022/10/18 11:40:49;;;;;;;8.63;2.93;;;24.50;99.90;;;;;;5091506;28;20920;-56
2022/10/18 11:43:34;;;;;;;8.82;2.60;;;24.40;99.90;;;;;;5086064;28;20387;-56
2022/10/18 11:46:20;;;;;;;9.05;2.50;;;24.30;99.90;;;;;;5090781;28;20382;-55
2022/10/18 11:49:00;;;;;;;6.72;2.70;;;24.00;99.90;;;;;;5089577;28;20391;-56
2022/10/18 11:51:38;;;;;;;10.27;2.90;;;24.10;99.90;;;;;;5091715;28;20427;-56
2022/10/18 11:54:31;;;;;;;7.25;2.70;;;24.10;99.90;;;;;;5090483;28;20362;-56
2022/10/18 11:57:19;;;;;;;9.20;2.90;;;24.20;99.90;;;;;;5090597;28;20439;-56
2022/10/18 11:59:53;;;;;;;9.30;2.80;;;24.30;99.90;;;;;;5090645;28;20382;-57
2022/10/18 12:02:37;;;;;;;8.80;3.00;;;24.60;99.90;;;;;;5091298;28;20507;-56
2022/10/18 12:05:05;;;;;;;7.88;2.92;;;24.60;99.90;;;;;;5090192;28;20382;-56
2022/10/18 12:07:36;;;;;;;12.50;3.40;;;24.90;99.90;;;;;;5090769;28;20410;-56
2022/10/18 12:10:07;;;;;;;9.40;3.40;;;24.80;99.90;;;;;;5089919;28;20392;-56
2022/10/18 12:12:43;;;;;;;7.20;3.08;;;24.60;99.90;;;;;;5095818;28;20374;-56
2022/10/18 12:15:21;;;;;;;8.60;3.05;;;24.30;99.90;;;;;;5090139;28;20459;-56
2022/10/18 12:17:52;;;;;;;7.95;3.33;;;23.70;99.90;;;;;;5090225;28;20389;-56
2022/10/18 12:20:38;;;;;;;8.98;3.63;;;23.40;99.90;;;;;;5090719;28;20381;-55
2022/10/18 12:23:36;;;;;;;11.17;3.60;;;23.30;99.90;;;;;;5090325;28;20842;-56
2022/10/18 12:26:05;;;;;;;8.40;3.20;;;23.70;99.90;;;;;;5089610;28;20370;-57
2022/10/18 12:29:04;;;;;;;10.73;3.90;;;24.10;99.90;;;;;;5089725;28;20756;-57
2022/10/18 12:31:43;;;;;;;7.40;2.70;;;24.40;99.90;;;;;;5089368;28;20887;-57
2022/10/18 12:34:33;;;;;;;10.50;3.20;;;24.50;99.90;;;;;;5089857;28;20401;-57
2022/10/18 12:37:20;;;;;;;8.75;2.95;;;24.80;99.90;;;;;;5089647;28;20389;-57
2022/10/18 12:40:30;;;;;;;8.02;2.85;;;24.40;99.90;;;;;;5089670;28;20398;-58
2022/10/18 12:42:56;;;;;;;7.53;3.00;;;24.20;99.90;;;;;;5068465;28;20450;-56
2022/10/18 12:45:32;;;;;;;9.60;3.77;;;23.80;99.90;;;;;;5090026;28;20465;-56
2022/10/18 12:48:00;;;;;;;13.57;3.50;;;23.60;99.90;;;;;;5089644;28;20523;-56
2022/10/18 12:50:36;;;;;;;8.60;3.38;;;23.70;99.90;;;;;;5090065;28;20406;-56
2022/10/18 12:53:06;;;;;;;8.60;3.05;;;23.80;99.90;;;;;;5087128;28;20394;-57
2022/10/18 12:55:40;;;;;;;8.98;2.67;;;23.70;99.90;;;;;;5087007;28;20411;-56
2022/10/18 12:58:22;;;;;;;8.50;2.65;;;23.70;99.90;;;;;;5088244;28;21050;-56
2022/10/18 13:00:48;;;;;;;8.98;2.65;;;24.00;99.90;;;;;;5089008;28;20385;-57
2022/10/18 13:03:19;;;;;;;8.90;2.75;;;24.00;99.90;;;;;;5085761;28;20929;-56
2022/10/18 13:05:50;;;;;;;6.78;2.60;;;24.00;99.90;;;;;;5084524;28;20390;-57
2022/10/18 13:08:32;;;;;;;8.00;2.85;;;23.30;99.90;;;;;;5087154;28;20505;-56